KACV

California Redwood Coast-Humboldt County Airport

Arcata/Eureka, California, USA
METAR KACV 251453Z AUTO 00000KT 10SM CLR 09/08 A2992 RMK AO2 SLP138 T00940083 53009
Observed Flight Rules
Sep-25 @ 14:53 UTC (24 minutes ago) Visual Flight Rules
Visibility Clouds
10 miles
  • Clear skies
Temperatures Readings
Current 9°C / 48°F
Dewpoint 8°C / 46°F
Humidity 94%
Altimeter 29.92" Hg
Pressure 1013.8 hPa
Elevation 67
METAR KACV 251453Z AUTO 00000KT 10SM CLR 09/08 A2992 RMK AO2 SLP138 T00940083 53009
Observed Flight Rules
Sep-25 @ 14:53 UTC
(24 minutes ago)
VFR
Clouds
  • Clear skies
Temperature Dewpoint
9°C / 48°F 8°C / 46°F
Humidity Altimeter Pressure
94% 29.92" Hg 1013.8 hPa